Time;durP1;ratioP1;P1;durP2;ratioP2;P2;SDS_P1;SDS_P2;PMS_P1;PMS_P2;Temp;Humidity;BMP_temperature;BMP_pressure;BME280_temperature;BME280_humidity;BME280_pressure;Samples;Min_cycle;Max_cycle;Signal;HPM_P1;HPM_P2
2024/01/06 00:02:13;;;;;;;1.23;0.82;;;6.30;99.90;;;;;;5040056;28;20045;-78
2024/01/06 00:04:40;;;;;;;0.70;0.60;;;6.30;99.90;;;;;;5023349;28;20057;-78
2024/01/06 00:07:07;;;;;;;1.05;0.90;;;6.40;99.90;;;;;;5021973;28;20127;-77
2024/01/06 00:09:34;;;;;;;0.85;0.75;;;6.40;1.00;;;;;;5019905;28;20447;-77
2024/01/06 00:12:02;;;;;;;1.13;0.80;;;6.50;99.90;;;;;;5003424;28;20053;-78
2024/01/06 00:14:29;;;;;;;1.83;1.15;;;6.50;99.90;;;;;;4987704;28;20103;-78
2024/01/06 00:16:56;;;;;;;1.10;0.90;;;6.50;1.00;;;;;;5018339;28;20045;-77
2024/01/06 00:19:22;;;;;;;1.42;1.10;;;6.50;1.00;;;;;;5006811;28;20056;-78
2024/01/06 00:21:50;;;;;;;1.52;1.15;;;6.50;1.00;;;;;;5022491;28;20546;-78
2024/01/06 00:24:17;;;;;;;1.90;1.20;;;6.50;1.00;;;;;;5039486;28;20060;-77
2024/01/06 00:26:44;;;;;;;2.33;1.48;;;6.50;1.00;;;;;;5038944;28;20059;-77
2024/01/06 00:29:10;;;;;;;2.03;1.77;;;6.50;1.00;;;;;;5006694;28;20079;-78
2024/01/06 00:31:37;;;;;;;1.67;1.38;;;6.50;1.00;;;;;;5039606;28;20872;-78
2024/01/06 00:34:04;;;;;;;2.45;1.55;;;6.40;8.70;;;;;;5023508;28;20049;-78
2024/01/06 00:36:32;;;;;;;2.63;1.80;;;6.50;1.00;;;;;;5021732;28;20051;-78
2024/01/06 00:38:59;;;;;;;2.45;1.80;;;6.50;99.90;;;;;;5022658;28;20162;-78
2024/01/06 00:41:26;;;;;;;1.88;1.55;;;6.50;1.00;;;;;;5040354;28;20507;-78
2024/01/06 00:43:53;;;;;;;1.50;1.13;;;6.50;99.90;;;;;;5038847;28;20052;-78
2024/01/06 00:46:19;;;;;;;2.00;1.27;;;6.60;99.90;;;;;;5030660;28;20053;-78
2024/01/06 00:48:46;;;;;;;1.00;0.90;;;6.60;99.90;;;;;;5003266;28;20118;-78
2024/01/06 00:51:13;;;;;;;1.45;0.90;;;6.60;1.00;;;;;;5019012;28;20064;-78
2024/01/06 00:53:40;;;;;;;0.70;0.70;;;6.60;1.00;;;;;;4986463;28;20578;-77
2024/01/06 00:56:07;;;;;;;1.10;0.85;;;6.60;28.90;;;;;;5019120;28;20053;-78
2024/01/06 00:58:34;;;;;;;0.88;0.68;;;6.60;99.90;;;;;;5002548;28;20443;-78
2024/01/06 01:01:01;;;;;;;1.10;0.80;;;6.60;99.90;;;;;;5003055;28;20049;-78
2024/01/06 01:03:28;;;;;;;1.48;1.00;;;6.60;99.90;;;;;;4986328;28;20495;-78
2024/01/06 01:05:55;;;;;;;1.05;0.95;;;6.60;99.90;;;;;;5019034;28;20057;-78
2024/01/06 01:08:22;;;;;;;1.52;1.10;;;6.60;99.90;;;;;;5002517;28;20054;-78
2024/01/06 01:10:49;;;;;;;1.70;1.27;;;6.60;99.90;;;;;;5019098;28;20507;-77
2024/01/06 01:13:17;;;;;;;1.38;1.00;;;6.60;99.90;;;;;;5002851;28;20049;-78
2024/01/06 01:15:43;;;;;;;1.35;0.90;;;6.60;99.90;;;;;;5020379;28;20467;-78
2024/01/06 01:18:10;;;;;;;1.00;0.80;;;6.60;99.90;;;;;;4987044;28;20488;-77
2024/01/06 01:20:38;;;;;;;0.80;0.68;;;6.60;99.90;;;;;;4986801;28;20049;-78
2024/01/06 01:23:05;;;;;;;0.82;0.80;;;6.60;99.90;;;;;;4986997;28;20056;-78
2024/01/06 01:25:31;;;;;;;0.95;0.80;;;6.60;99.90;;;;;;5007130;28;20163;-77
2024/01/06 01:27:58;;;;;;;0.90;0.63;;;6.60;99.90;;;;;;5022990;28;20495;-77
2024/01/06 01:30:27;;;;;;;0.70;0.60;;;6.60;99.90;;;;;;5007357;28;20147;-77
2024/01/06 01:32:54;;;;;;;1.27;0.90;;;6.70;1.00;;;;;;5023027;28;20125;-77
2024/01/06 01:35:21;;;;;;;1.25;0.80;;;6.70;99.90;;;;;;5022219;28;20050;-76
2024/01/06 01:37:48;;;;;;;1.30;0.90;;;6.70;99.90;;;;;;5022360;28;20053;-77
2024/01/06 01:40:15;;;;;;;1.38;1.00;;;6.70;99.90;;;;;;5023537;28;20054;-77
2024/01/06 01:42:45;;;;;;;0.80;0.60;;;6.70;1.00;;;;;;5023371;28;20057;-77
2024/01/06 01:45:12;;;;;;;1.52;1.10;;;6.80;99.90;;;;;;5006193;28;20439;-77
2024/01/06 01:47:39;;;;;;;0.85;0.80;;;6.70;99.90;;;;;;4989448;28;20525;-76
2024/01/06 01:50:07;;;;;;;2.58;0.85;;;6.80;99.90;;;;;;4990406;28;20049;-77
2024/01/06 01:52:35;;;;;;;0.93;0.70;;;6.80;99.90;;;;;;4990041;28;20053;-77
2024/01/06 01:55:03;;;;;;;1.00;0.80;;;6.70;99.90;;;;;;4989805;28;20061;-77
2024/01/06 01:57:30;;;;;;;1.52;1.08;;;6.70;99.90;;;;;;5022545;28;20061;-77
2024/01/06 01:59:57;;;;;;;1.30;1.00;;;6.70;99.90;;;;;;5022487;28;20053;-76
2024/01/06 02:02:24;;;;;;;1.58;1.10;;;6.70;99.90;;;;;;4989710;28;20049;-78
2024/01/06 02:04:51;;;;;;;1.27;0.93;;;6.70;99.90;;;;;;5005784;28;20056;-77
2024/01/06 02:07:18;;;;;;;2.08;1.45;;;6.60;99.90;;;;;;5005204;28;20045;-76
2024/01/06 02:09:45;;;;;;;1.73;1.10;;;6.60;99.90;;;;;;5006118;28;20111;-77
2024/01/06 02:12:12;;;;;;;3.72;1.50;;;6.60;99.90;;;;;;5006496;28;20422;-77
2024/01/06 02:14:39;;;;;;;2.17;1.30;;;6.60;99.90;;;;;;5022265;28;20045;-77
2024/01/06 02:17:06;;;;;;;1.27;1.15;;;6.60;99.90;;;;;;5022014;28;20502;-76
2024/01/06 02:19:33;;;;;;;1.75;1.35;;;6.60;99.90;;;;;;5006024;28;20060;-76
2024/01/06 02:22:00;;;;;;;2.42;1.38;;;6.50;99.90;;;;;;5005130;28;20071;-77
2024/01/06 02:24:26;;;;;;;1.90;1.70;;;6.50;99.90;;;;;;5005868;28;20061;-77
2024/01/06 02:26:53;;;;;;;1.77;1.33;;;6.60;99.90;;;;;;5005852;28;20061;-76
2024/01/06 02:29:20;;;;;;;2.60;1.40;;;6.60;99.90;;;;;;5005997;28;20057;-77
2024/01/06 02:31:47;;;;;;;1.88;1.40;;;6.60;99.90;;;;;;5022479;28;20053;-77
2024/01/06 02:34:14;;;;;;;2.08;1.30;;;6.60;99.90;;;;;;5011027;28;20410;-76
2024/01/06 02:36:41;;;;;;;1.63;1.00;;;6.60;99.90;;;;;;5019084;28;20442;-76
2024/01/06 02:39:08;;;;;;;1.50;1.35;;;6.60;99.90;;;;;;5008926;28;20132;-77
2024/01/06 02:41:35;;;;;;;2.05;1.45;;;6.60;99.90;;;;;;5008985;28;20407;-76
2024/01/06 02:44:03;;;;;;;2.53;1.88;;;6.60;97.00;;;;;;5008520;28;20080;-77
2024/01/06 02:46:30;;;;;;;1.88;1.48;;;6.60;99.90;;;;;;5008847;28;20064;-76
2024/01/06 02:48:57;;;;;;;1.85;1.35;;;6.60;99.90;;;;;;5009012;28;20049;-76
2024/01/06 02:51:24;;;;;;;1.55;1.00;;;6.60;99.90;;;;;;4992389;28;20459;-77
2024/01/06 02:53:51;;;;;;;2.78;1.77;;;6.60;99.90;;;;;;4992337;28;20057;-76
2024/01/06 02:56:19;;;;;;;1.33;1.05;;;6.60;63.90;;;;;;5026617;28;20107;-76
2024/01/06 02:58:47;;;;;;;1.83;1.20;;;6.60;95.80;;;;;;5026319;28;20053;-77
2024/01/06 03:01:14;;;;;;;2.00;1.27;;;6.60;93.10;;;;;;5025328;28;20049;-77
2024/01/06 03:03:41;;;;;;;1.75;1.00;;;6.60;99.90;;;;;;4992338;28;20049;-76
2024/01/06 03:06:08;;;;;;;1.85;1.30;;;6.60;99.90;;;;;;5008132;28;20049;-77
2024/01/06 03:08:35;;;;;;;2.03;1.08;;;6.60;59.20;;;;;;5008804;28;20120;-77
2024/01/06 03:11:04;;;;;;;1.50;1.23;;;6.60;78.70;;;;;;5045119;28;20439;-77
2024/01/06 03:13:31;;;;;;;1.55;1.15;;;6.60;28.30;;;;;;5028083;28;20567;-77
2024/01/06 03:16:01;;;;;;;1.70;1.20;;;6.60;1.00;;;;;;5024657;28;20541;-77
2024/01/06 03:18:28;;;;;;;2.17;1.70;;;6.70;1.00;;;;;;5008522;28;20099;-76
2024/01/06 03:20:55;;;;;;;2.67;1.60;;;6.70;1.00;;;;;;5007864;28;20061;-76
2024/01/06 03:23:22;;;;;;;1.67;1.35;;;6.70;1.00;;;;;;4990890;28;20053;-78
2024/01/06 03:25:48;;;;;;;2.00;1.20;;;6.60;1.00;;;;;;4991987;28;20103;-77
2024/01/06 03:28:15;;;;;;;1.83;1.50;;;6.60;1.00;;;;;;4991959;28;20057;-77
2024/01/06 03:30:42;;;;;;;2.63;1.98;;;6.60;1.00;;;;;;5024582;28;20046;-76
2024/01/06 03:33:12;;;;;;;2.95;1.98;;;6.60;1.00;;;;;;5024017;28;20103;-77
2024/01/06 03:35:39;;;;;;;2.50;1.80;;;6.60;1.00;;;;;;5023971;28;20097;-76
2024/01/06 03:38:06;;;;;;;2.00;1.50;;;6.60;99.90;;;;;;5023241;28;20053;-77
2024/01/06 03:40:33;;;;;;;1.52;1.10;;;6.60;1.00;;;;;;5024618;28;20046;-77
2024/01/06 03:43:00;;;;;;;2.45;1.35;;;6.60;1.00;;;;;;5012227;28;20138;-76
2024/01/06 03:45:27;;;;;;;2.08;1.48;;;6.60;1.00;;;;;;5042410;28;20578;-78
2024/01/06 03:47:54;;;;;;;3.08;1.73;;;6.50;99.90;;;;;;5041935;28;20052;-77
2024/01/06 03:50:21;;;;;;;2.40;1.70;;;6.50;99.90;;;;;;5041826;28;20048;-77
2024/01/06 03:52:48;;;;;;;2.00;1.42;;;6.50;99.90;;;;;;5025078;28;20134;-77
2024/01/06 03:55:16;;;;;;;2.53;1.73;;;6.40;99.90;;;;;;5043468;28;20049;-77
2024/01/06 03:57:43;;;;;;;2.00;1.42;;;6.50;99.90;;;;;;5026004;28;20041;-77
2024/01/06 04:00:10;;;;;;;1.58;1.40;;;6.50;99.90;;;;;;5042362;28;20535;-78
2024/01/06 04:02:38;;;;;;;2.92;2.08;;;6.50;99.90;;;;;;5044734;28;20049;-77
2024/01/06 04:05:05;;;;;;;2.35;1.50;;;6.50;99.90;;;;;;5044414;28;20084;-77
2024/01/06 04:07:32;;;;;;;1.80;1.40;;;6.40;99.90;;;;;;5026265;28;20162;-77
2024/01/06 04:09:59;;;;;;;2.72;1.90;;;6.40;99.90;;;;;;5027002;28;20048;-77
2024/01/06 04:12:26;;;;;;;3.47;1.70;;;6.40;99.90;;;;;;5043292;28;20049;-78
2024/01/06 04:14:53;;;;;;;1.58;1.17;;;6.40;99.90;;;;;;5010980;28;20053;-77
2024/01/06 04:17:20;;;;;;;1.48;1.00;;;6.40;99.90;;;;;;5043605;28;20429;-77
2024/01/06 04:19:46;;;;;;;2.53;1.30;;;6.40;99.90;;;;;;5026881;28;20171;-77
2024/01/06 04:22:14;;;;;;;1.65;1.27;;;6.40;99.90;;;;;;5026456;28;20080;-77
2024/01/06 04:24:41;;;;;;;1.83;1.33;;;6.40;99.90;;;;;;5044594;28;20466;-76
2024/01/06 04:27:09;;;;;;;2.47;1.60;;;6.40;99.90;;;;;;5027103;28;20051;-77
2024/01/06 04:29:36;;;;;;;1.83;1.33;;;6.40;99.90;;;;;;5042727;28;20132;-77
2024/01/06 04:32:06;;;;;;;2.13;1.20;;;6.40;99.90;;;;;;5026576;28;20052;-78
2024/01/06 04:34:33;;;;;;;1.65;1.23;;;6.40;99.90;;;;;;5044522;28;20102;-77
2024/01/06 04:37:01;;;;;;;1.77;1.30;;;6.40;99.90;;;;;;5025849;28;20053;-77
2024/01/06 04:39:28;;;;;;;1.55;1.10;;;6.40;99.90;;;;;;5043329;28;20049;-77
2024/01/06 04:41:55;;;;;;;1.67;1.00;;;6.40;99.90;;;;;;5026595;28;20076;-77
2024/01/06 04:44:23;;;;;;;1.23;1.00;;;6.40;99.90;;;;;;5042941;28;20064;-77
2024/01/06 04:46:50;;;;;;;1.73;0.90;;;6.40;99.90;;;;;;5026547;28;20128;-77
2024/01/06 04:49:17;;;;;;;2.40;1.60;;;6.40;99.90;;;;;;5010664;28;20060;-77
2024/01/06 04:51:45;;;;;;;1.75;1.35;;;6.40;99.90;;;;;;5025951;28;20561;-77
2024/01/06 04:54:12;;;;;;;2.08;1.33;;;6.40;99.90;;;;;;5042786;28;20140;-77
2024/01/06 04:56:39;;;;;;;2.10;1.58;;;6.30;99.90;;;;;;5026416;28;20049;-77
2024/01/06 04:59:06;;;;;;;2.80;1.63;;;6.30;99.90;;;;;;5009769;28;20053;-76
2024/01/06 05:01:33;;;;;;;3.10;2.00;;;6.30;99.90;;;;;;5026519;28;20604;-76
2024/01/06 05:04:00;;;;;;;1.95;1.45;;;6.20;99.90;;;;;;5026655;28;20045;-77
2024/01/06 05:06:27;;;;;;;2.25;1.48;;;6.20;99.90;;;;;;5025589;28;20053;-76
2024/01/06 05:08:55;;;;;;;2.38;1.75;;;6.20;99.90;;;;;;5042777;28;20055;-77
2024/01/06 05:11:21;;;;;;;1.83;1.33;;;6.20;99.90;;;;;;5026662;28;20060;-76
2024/01/06 05:13:48;;;;;;;2.28;1.52;;;6.20;99.90;;;;;;5042173;28;20510;-77
2024/01/06 05:16:15;;;;;;;2.63;1.70;;;6.20;99.90;;;;;;5009763;28;20079;-77
2024/01/06 05:18:42;;;;;;;2.00;1.48;;;6.20;99.90;;;;;;5042990;28;20094;-77
2024/01/06 05:21:09;;;;;;;1.90;1.30;;;6.20;99.90;;;;;;5042565;28;20120;-77
2024/01/06 05:23:36;;;;;;;1.42;1.30;;;6.20;99.90;;;;;;5037971;28;20510;-77
2024/01/06 05:26:03;;;;;;;1.80;1.20;;;6.20;99.90;;;;;;5022855;28;20054;-76
2024/01/06 05:28:30;;;;;;;2.45;1.50;;;6.20;99.90;;;;;;5022388;28;20081;-77
2024/01/06 05:30:57;;;;;;;2.60;1.30;;;6.20;99.90;;;;;;4990912;28;20100;-77
2024/01/06 05:33:24;;;;;;;2.15;1.30;;;6.10;99.90;;;;;;4990449;28;20072;-77
2024/01/06 05:35:51;;;;;;;2.03;1.02;;;6.20;99.90;;;;;;4989800;28;20045;-76
2024/01/06 05:38:18;;;;;;;1.55;1.25;;;6.10;99.90;;;;;;5006063;28;20053;-77
2024/01/06 05:40:45;;;;;;;0.73;0.63;;;6.20;99.90;;;;;;4990584;28;20057;-76
2024/01/06 05:43:12;;;;;;;1.40;0.80;;;6.20;99.90;;;;;;5005686;28;20057;-77
2024/01/06 05:45:41;;;;;;;1.67;0.98;;;6.20;99.90;;;;;;5006315;28;20483;-77
2024/01/06 05:48:10;;;;;;;2.00;1.08;;;6.20;99.90;;;;;;5026381;28;20165;-77
2024/01/06 05:50:39;;;;;;;1.55;0.90;;;6.10;99.90;;;;;;5042035;28;20052;-77
2024/01/06 05:53:06;;;;;;;3.38;1.20;;;6.10;99.90;;;;;;5025060;28;20522;-77
2024/01/06 05:55:33;;;;;;;1.75;0.93;;;6.10;99.90;;;;;;5026131;28;20142;-76
2024/01/06 05:58:00;;;;;;;1.30;0.88;;;6.10;99.90;;;;;;5025668;28;20067;-77
2024/01/06 06:00:27;;;;;;;1.02;0.80;;;6.20;99.90;;;;;;5026531;28;20080;-77
2024/01/06 06:02:54;;;;;;;0.95;0.80;;;6.20;99.90;;;;;;5032330;28;20080;-76
2024/01/06 06:05:21;;;;;;;2.75;1.45;;;6.10;99.90;;;;;;5018543;28;20472;-76
2024/01/06 06:07:48;;;;;;;1.83;1.00;;;6.00;99.90;;;;;;5001507;28;20061;-77
2024/01/06 06:10:16;;;;;;;2.17;1.10;;;6.00;99.90;;;;;;5021430;28;20099;-76
2024/01/06 06:12:43;;;;;;;1.75;1.02;;;6.00;99.90;;;;;;5005904;28;20498;-77
2024/01/06 06:15:10;;;;;;;2.33;1.20;;;6.00;99.90;;;;;;5001508;28;20103;-77
2024/01/06 06:17:37;;;;;;;1.27;0.93;;;6.10;99.90;;;;;;4994138;28;20079;-77
2024/01/06 06:20:06;;;;;;;1.92;0.80;;;6.00;99.90;;;;;;5005739;28;20045;-77
2024/01/06 06:22:33;;;;;;;3.78;1.40;;;6.00;99.90;;;;;;4995526;28;20057;-77
2024/01/06 06:25:00;;;;;;;1.98;1.13;;;6.00;99.90;;;;;;5005737;28;20105;-76
2024/01/06 06:27:27;;;;;;;1.48;0.98;;;6.00;99.90;;;;;;5003644;28;20060;-77
2024/01/06 06:29:56;;;;;;;1.20;0.90;;;6.00;99.90;;;;;;5042752;28;20139;-76
2024/01/06 06:32:23;;;;;;;1.40;1.08;;;6.00;99.90;;;;;;5040839;28;20149;-77
2024/01/06 06:34:50;;;;;;;1.48;0.80;;;6.00;99.90;;;;;;5024637;28;20643;-76
2024/01/06 06:37:16;;;;;;;1.52;1.00;;;6.00;99.90;;;;;;5008070;28;20071;-76
2024/01/06 06:39:44;;;;;;;1.17;0.85;;;6.00;99.90;;;;;;5024957;28;20072;-76
2024/01/06 06:42:11;;;;;;;1.60;1.20;;;6.00;99.90;;;;;;5025118;28;20052;-77
2024/01/06 06:44:39;;;;;;;2.67;0.90;;;6.00;99.90;;;;;;5024934;28;20136;-76
2024/01/06 06:47:06;;;;;;;1.85;1.00;;;6.00;99.90;;;;;;5042127;28;20106;-77
2024/01/06 06:49:33;;;;;;;2.13;1.10;;;6.00;99.90;;;;;;5008798;28;20052;-77
2024/01/06 06:52:03;;;;;;;1.17;0.77;;;6.00;99.90;;;;;;5022812;28;20053;-77
2024/01/06 06:54:30;;;;;;;2.45;1.30;;;6.10;99.90;;;;;;5021459;28;20054;-77
2024/01/06 06:56:58;;;;;;;2.30;1.52;;;6.00;99.90;;;;;;5004907;28;20472;-77
2024/01/06 06:59:25;;;;;;;1.65;1.05;;;6.10;99.90;;;;;;5004948;28;20084;-76
2024/01/06 07:01:52;;;;;;;1.75;0.60;;;6.00;99.90;;;;;;5004761;28;20049;-76
2024/01/06 07:04:19;;;;;;;0.85;0.57;;;6.10;99.90;;;;;;5004759;28;20114;-77
2024/01/06 07:06:46;;;;;;;0.90;0.50;;;6.10;99.90;;;;;;5020535;28;20107;-77
2024/01/06 07:09:13;;;;;;;0.68;0.50;;;6.10;99.90;;;;;;5005205;28;20530;-76
2024/01/06 07:11:40;;;;;;;0.73;0.55;;;6.10;99.90;;;;;;5021520;28;20422;-77
2024/01/06 07:14:07;;;;;;;1.75;0.65;;;6.10;99.90;;;;;;4988223;28;20604;-76
2024/01/06 07:16:34;;;;;;;0.85;0.60;;;6.10;99.90;;;;;;5020783;28;20263;-77
2024/01/06 07:19:01;;;;;;;0.82;0.50;;;6.20;99.90;;;;;;5004347;28;20053;-77
2024/01/06 07:21:28;;;;;;;0.77;0.68;;;6.20;99.90;;;;;;5003278;28;20104;-77
2024/01/06 07:23:56;;;;;;;1.20;0.80;;;6.20;99.90;;;;;;5018259;28;20453;-78
2024/01/06 07:26:23;;;;;;;0.95;0.70;;;6.20;99.90;;;;;;5036410;28;20060;-77
2024/01/06 07:28:51;;;;;;;1.75;0.80;;;6.20;99.90;;;;;;5020750;28;20053;-77
2024/01/06 07:31:17;;;;;;;1.30;0.55;;;6.20;99.90;;;;;;5008484;28;20045;-77
2024/01/06 07:33:44;;;;;;;0.90;0.60;;;6.20;99.90;;;;;;5032044;28;20050;-77
2024/01/06 07:36:11;;;;;;;1.02;0.63;;;6.20;99.90;;;;;;5024035;28;20048;-77
2024/01/06 07:38:38;;;;;;;0.93;0.68;;;6.20;99.90;;;;;;4999680;28;20589;-77
2024/01/06 07:41:06;;;;;;;0.70;0.50;;;6.20;99.90;;;;;;5016657;28;20060;-77
2024/01/06 07:43:33;;;;;;;1.73;0.73;;;6.20;99.90;;;;;;5016087;28;20648;-76
2024/01/06 07:46:03;;;;;;;1.30;0.80;;;6.20;99.90;;;;;;5022704;28;20060;-77
2024/01/06 07:48:30;;;;;;;1.55;1.00;;;6.20;99.90;;;;;;5031870;28;20076;-76
2024/01/06 07:50:57;;;;;;;1.77;1.30;;;6.30;99.90;;;;;;5026586;28;20204;-76
2024/01/06 07:53:24;;;;;;;3.85;1.17;;;6.30;99.90;;;;;;5026526;28;20495;-76
2024/01/06 07:55:51;;;;;;;1.70;1.00;;;6.30;99.90;;;;;;5009308;28;20052;-77
2024/01/06 07:58:18;;;;;;;2.30;1.42;;;6.20;99.90;;;;;;5017907;28;20048;-77
2024/01/06 08:00:45;;;;;;;2.38;1.20;;;6.20;99.90;;;;;;4988363;28;20053;-77
2024/01/06 08:03:12;;;;;;;2.88;1.33;;;6.20;99.90;;;;;;5003829;28;20561;-77
2024/01/06 08:05:39;;;;;;;1.98;1.35;;;6.20;99.90;;;;;;5003172;28;20708;-76
2024/01/06 08:08:06;;;;;;;2.42;1.13;;;6.20;99.90;;;;;;5003754;28;20477;-77
2024/01/06 08:10:33;;;;;;;1.63;0.90;;;6.20;99.90;;;;;;5018291;28;20056;-77
2024/01/06 08:13:00;;;;;;;2.65;1.25;;;6.20;99.90;;;;;;5025428;28;20052;-77
2024/01/06 08:15:27;;;;;;;2.28;1.05;;;6.20;99.90;;;;;;4997853;28;20057;-77
2024/01/06 08:17:54;;;;;;;2.35;1.27;;;6.10;99.90;;;;;;5032097;28;20123;-77
2024/01/06 08:20:21;;;;;;;2.20;1.30;;;6.10;99.90;;;;;;4998179;28;20045;-77
2024/01/06 08:22:48;;;;;;;1.75;1.30;;;6.10;99.90;;;;;;5028083;28;20079;-76
2024/01/06 08:25:17;;;;;;;3.22;1.40;;;6.10;99.90;;;;;;5029519;28;20422;-77
2024/01/06 08:27:44;;;;;;;2.78;1.40;;;6.10;99.90;;;;;;5010472;28;20046;-77
2024/01/06 08:30:12;;;;;;;2.05;1.05;;;6.10;99.90;;;;;;5025973;28;20080;-76
2024/01/06 08:32:39;;;;;;;1.98;1.30;;;6.10;99.90;;;;;;5027379;28;20045;-76
2024/01/06 08:35:09;;;;;;;2.05;1.30;;;6.10;99.90;;;;;;5010619;28;20080;-78
2024/01/06 08:37:36;;;;;;;1.88;1.30;;;6.10;99.90;;;;;;5011423;28;20045;-78
2024/01/06 08:40:04;;;;;;;1.45;1.05;;;6.10;99.90;;;;;;5025968;28;20107;-78
2024/01/06 08:42:31;;;;;;;2.13;1.30;;;6.10;99.90;;;;;;5025023;28;20080;-78
2024/01/06 08:44:58;;;;;;;2.55;1.25;;;6.10;99.90;;;;;;4992197;28;20569;-77
2024/01/06 08:47:25;;;;;;;2.05;1.38;;;6.10;99.90;;;;;;5023925;28;20594;-78
2024/01/06 08:49:52;;;;;;;2.85;1.67;;;6.10;99.90;;;;;;4997137;28;20174;-78
2024/01/06 08:52:19;;;;;;;2.08;1.25;;;6.10;99.90;;;;;;5003654;28;20118;-77
2024/01/06 08:54:46;;;;;;;2.45;1.77;;;6.20;99.90;;;;;;5004039;28;20064;-78
2024/01/06 08:57:14;;;;;;;1.88;1.13;;;6.20;99.90;;;;;;5000133;28;20141;-78
2024/01/06 08:59:41;;;;;;;1.67;1.27;;;6.20;99.90;;;;;;5000414;28;20045;-78
2024/01/06 09:02:08;;;;;;;2.50;1.85;;;6.20;99.90;;;;;;5013234;28;20130;-77
2024/01/06 09:04:35;;;;;;;1.65;1.08;;;6.30;99.90;;;;;;5027503;28;20045;-77
2024/01/06 09:07:02;;;;;;;2.55;1.85;;;6.30;99.90;;;;;;5025291;28;20099;-77
2024/01/06 09:09:30;;;;;;;2.50;1.60;;;6.30;99.90;;;;;;5000069;28;20060;-77
2024/01/06 09:11:58;;;;;;;2.58;1.17;;;6.30;99.90;;;;;;4987810;28;20049;-78
2024/01/06 09:14:25;;;;;;;3.05;1.15;;;6.30;99.90;;;;;;5019796;28;20395;-77
2024/01/06 09:16:52;;;;;;;1.80;1.13;;;6.30;99.90;;;;;;5010901;28;20134;-77
2024/01/06 09:19:20;;;;;;;1.25;0.93;;;6.30;99.60;;;;;;5036020;28;20083;-78
2024/01/06 09:21:47;;;;;;;1.35;1.00;;;6.30;99.90;;;;;;5019583;28;20045;-77
2024/01/06 09:24:14;;;;;;;1.60;0.85;;;6.30;99.90;;;;;;5015917;28;20092;-78
2024/01/06 09:26:41;;;;;;;1.88;0.70;;;6.20;99.90;;;;;;5016094;28;20082;-77
2024/01/06 09:29:09;;;;;;;0.80;0.73;;;6.20;99.90;;;;;;5003587;28;20045;-76
2024/01/06 09:31:38;;;;;;;1.55;0.80;;;6.20;99.90;;;;;;5022324;28;20063;-77
2024/01/06 09:34:08;;;;;;;1.23;0.80;;;6.30;99.90;;;;;;4999267;28;20053;-78
2024/01/06 09:36:36;;;;;;;2.45;1.08;;;6.30;99.90;;;;;;5018734;28;20536;-77
2024/01/06 09:39:04;;;;;;;0.95;0.57;;;6.30;98.10;;;;;;5004931;28;20057;-77
2024/01/06 09:41:31;;;;;;;2.33;0.90;;;6.30;93.70;;;;;;4997176;28;20549;-77
2024/01/06 09:43:59;;;;;;;0.80;0.60;;;6.40;63.90;;;;;;5008584;28;20045;-77
2024/01/06 09:46:29;;;;;;;1.23;0.70;;;6.40;73.40;;;;;;5020309;28;20053;-78
2024/01/06 09:48:56;;;;;;;1.15;0.50;;;6.40;63.60;;;;;;5019619;28;20067;-78
2024/01/06 09:51:23;;;;;;;0.98;0.70;;;6.50;69.20;;;;;;5014728;28;20834;-77
2024/01/06 09:53:58;;;;;;;1.00;0.55;;;6.50;64.70;;;;;;5030567;28;20085;-77
2024/01/06 09:56:27;;;;;;;0.85;0.45;;;6.50;70.80;;;;;;5023902;28;20064;-78
2024/01/06 09:58:54;;;;;;;1.45;0.60;;;6.60;70.70;;;;;;5017677;28;20672;-78
2024/01/06 10:01:22;;;;;;;0.75;0.40;;;6.60;67.70;;;;;;5030372;28;20055;-77
2024/01/06 10:03:49;;;;;;;1.35;0.73;;;6.60;64.70;;;;;;5016830;28;20052;-77
2024/01/06 10:06:16;;;;;;;0.93;0.68;;;6.70;74.50;;;;;;4999861;28;20532;-77
2024/01/06 10:08:53;;;;;;;0.70;0.60;;;6.70;55.60;;;;;;4999715;28;20448;-77
2024/01/06 10:11:21;;;;;;;1.90;0.70;;;6.70;67.40;;;;;;5022283;28;20052;-77
2024/01/06 10:13:50;;;;;;;0.50;0.50;;;6.80;55.70;;;;;;5012863;28;20143;-77
2024/01/06 10:16:18;;;;;;;1.40;0.50;;;6.90;72.20;;;;;;5000808;28;20547;-77
2024/01/06 10:18:45;;;;;;;1.05;0.68;;;6.90;72.30;;;;;;5026917;28;20466;-77
2024/01/06 10:21:17;;;;;;;1.05;0.80;;;6.90;66.70;;;;;;5011594;28;20049;-77
2024/01/06 10:23:45;;;;;;;2.17;0.82;;;6.90;67.70;;;;;;4992450;28;20049;-77
2024/01/06 10:26:13;;;;;;;1.17;0.80;;;6.90;56.00;;;;;;5020792;28;20099;-76
2024/01/06 10:28:41;;;;;;;2.05;0.70;;;6.90;56.80;;;;;;5022619;28;20148;-76
2024/01/06 10:31:08;;;;;;;2.13;0.70;;;6.90;62.30;;;;;;5007535;28;20053;-76
2024/01/06 10:33:35;;;;;;;0.88;0.65;;;6.90;58.80;;;;;;5014730;28;20056;-75
2024/01/06 10:36:05;;;;;;;0.88;0.57;;;7.00;69.10;;;;;;5038646;28;20118;-75
2024/01/06 10:38:34;;;;;;;1.75;0.63;;;7.10;55.80;;;;;;5006017;28;20064;-76
2024/01/06 10:41:07;;;;;;;1.40;0.65;;;7.10;54.40;;;;;;5006405;28;20041;-76
2024/01/06 10:43:37;;;;;;;1.23;0.57;;;7.10;52.60;;;;;;4996011;28;20060;-75
2024/01/06 10:46:04;;;;;;;0.82;0.65;;;7.10;46.00;;;;;;4998181;28;20216;-75
2024/01/06 10:48:35;;;;;;;1.20;0.70;;;7.20;56.20;;;;;;4992875;28;20053;-75
2024/01/06 10:51:07;;;;;;;2.88;1.02;;;7.10;44.10;;;;;;5008803;28;20166;-79
2024/01/06 10:53:39;;;;;;;1.15;0.70;;;7.00;39.30;;;;;;4997313;28;20463;-75
2024/01/06 10:56:12;;;;;;;1.17;0.80;;;7.00;38.90;;;;;;4989095;28;20408;-75
2024/01/06 10:58:46;;;;;;;;;;;7.00;41.10;;;;;;5004456;28;20284;-75
2024/01/06 11:01:13;;;;;;;1.15;0.80;;;7.10;39.10;;;;;;5003987;28;19939;-75
2024/01/06 11:03:46;;;;;;;2.30;1.00;;;7.20;43.50;;;;;;4992483;28;20561;-76
2024/01/06 11:06:13;;;;;;;0.85;0.63;;;7.10;43.80;;;;;;5001674;28;20064;-75
2024/01/06 11:09:04;;;;;;;2.08;1.02;;;7.20;42.10;;;;;;5001745;28;20064;-75
2024/01/06 11:11:30;;;;;;;2.47;1.02;;;7.20;39.80;;;;;;5003825;28;20049;-76
2024/01/06 11:14:32;;;;;;;1.58;0.80;;;7.20;46.70;;;;;;4985073;28;20052;-76
2024/01/06 11:16:59;;;;;;;2.63;1.58;;;7.30;58.20;;;;;;4966011;28;20153;-76
2024/01/06 11:19:35;;;;;;;2.25;1.00;;;7.30;37.10;;;;;;5018094;28;20354;-76
2024/01/06 11:22:31;;;;;;;2.08;1.10;;;7.20;50.80;;;;;;5021241;28;20056;-76
2024/01/06 11:25:07;;;;;;;1.77;1.05;;;7.20;37.00;;;;;;5017320;28;20076;-76
2024/01/06 11:27:35;;;;;;;1.60;1.20;;;7.20;38.80;;;;;;5001338;28;20138;-76
2024/01/06 11:30:06;;;;;;;2.13;1.23;;;7.30;38.30;;;;;;4985526;28;20990;-76
2024/01/06 11:32:42;;;;;;;3.75;1.30;;;7.20;37.00;;;;;;5001546;28;21081;-75
2024/01/06 11:35:13;;;;;;;1.70;1.10;;;7.10;37.60;;;;;;5000989;28;20103;-77
2024/01/06 11:37:43;;;;;;;2.10;1.20;;;7.10;36.10;;;;;;4985299;28;20145;-76
2024/01/06 11:40:25;;;;;;;0.95;0.85;;;7.20;35.60;;;;;;5017383;28;20537;-76
2024/01/06 11:43:01;;;;;;;1.50;0.88;;;7.20;41.10;;;;;;5017057;28;20053;-76
2024/01/06 11:45:29;;;;;;;1.67;1.17;;;7.30;39.80;;;;;;5030515;28;20044;-76
2024/01/06 11:47:58;;;;;;;2.35;0.98;;;7.30;37.20;;;;;;4999404;28;20536;-76
2024/01/06 11:50:27;;;;;;;3.08;0.98;;;7.20;45.90;;;;;;5013294;28;20135;-76
2024/01/06 11:52:56;;;;;;;1.08;0.80;;;7.10;42.90;;;;;;5030345;28;20061;-75
2024/01/06 11:55:24;;;;;;;2.05;0.90;;;7.10;40.90;;;;;;5031409;28;20131;-74
2024/01/06 11:57:51;;;;;;;1.52;1.10;;;7.00;39.40;;;;;;5011028;28;20060;-74
2024/01/06 12:00:18;;;;;;;3.85;1.38;;;7.00;38.30;;;;;;5032538;28;20049;-75
2024/01/06 12:02:45;;;;;;;1.70;1.10;;;7.00;36.30;;;;;;5034156;28;20823;-73
2024/01/06 12:05:14;;;;;;;1.80;1.00;;;7.00;40.10;;;;;;5033526;28;20485;-76
2024/01/06 12:07:45;;;;;;;1.50;1.00;;;7.10;38.60;;;;;;5027165;28;20045;-74
2024/01/06 12:10:14;;;;;;;1.60;1.00;;;7.10;39.30;;;;;;5006441;28;20394;-74
2024/01/06 12:12:41;;;;;;;1.63;1.00;;;7.20;39.70;;;;;;5030730;28;20068;-75
2024/01/06 12:15:09;;;;;;;2.25;1.17;;;7.20;44.10;;;;;;5033507;28;20507;-75
2024/01/06 12:17:38;;;;;;;2.22;1.00;;;7.30;46.30;;;;;;5026890;28;20045;-75
2024/01/06 12:20:08;;;;;;;2.47;1.60;;;7.30;40.30;;;;;;5010919;28;20446;-75
2024/01/06 12:22:35;;;;;;;1.45;1.02;;;7.30;41.40;;;;;;5033279;28;20052;-74
2024/01/06 12:25:05;;;;;;;2.38;1.38;;;7.30;34.50;;;;;;5028037;28;20518;-75
2024/01/06 12:27:32;;;;;;;2.20;1.10;;;7.40;33.80;;;;;;5009845;28;20045;-75
2024/01/06 12:30:03;;;;;;;1.67;1.13;;;7.40;35.50;;;;;;5027390;28;20050;-75
2024/01/06 12:32:30;;;;;;;1.55;1.02;;;7.40;50.80;;;;;;5033684;28;20142;-75
2024/01/06 12:34:58;;;;;;;2.75;1.30;;;7.50;50.00;;;;;;5032524;28;20807;-75
2024/01/06 12:37:25;;;;;;;1.40;0.88;;;7.50;42.60;;;;;;5028090;28;20052;-75
2024/01/06 12:39:52;;;;;;;2.05;1.25;;;7.40;35.50;;;;;;5026605;28;20146;-75
2024/01/06 12:42:21;;;;;;;2.28;1.35;;;7.40;40.30;;;;;;5023932;28;20052;-75
2024/01/06 12:44:48;;;;;;;1.30;1.00;;;7.30;39.30;;;;;;5029963;28;20045;-76
2024/01/06 12:47:15;;;;;;;1.75;1.20;;;7.20;41.40;;;;;;5024611;28;20092;-75
2024/01/06 12:49:42;;;;;;;1.75;1.30;;;7.10;38.60;;;;;;5025990;28;20045;-75
2024/01/06 12:52:09;;;;;;;1.40;0.80;;;7.10;32.80;;;;;;5032424;28;20048;-74
2024/01/06 12:54:36;;;;;;;1.20;0.65;;;7.00;40.00;;;;;;5015063;28;20682;-77
2024/01/06 12:57:03;;;;;;;1.55;0.80;;;7.10;37.70;;;;;;5028367;28;20632;-75
2024/01/06 12:59:30;;;;;;;1.60;1.00;;;7.20;42.80;;;;;;5032555;28;20052;-75
2024/01/06 13:01:57;;;;;;;1.13;0.65;;;7.20;36.10;;;;;;5024349;28;20057;-75